sensor_id;sensor_type;location;lat;lon;timestamp;P1;durP1;ratioP1;P2;durP2;ratioP2
2173;SDS011;1093;51.424;11.764;2023-04-06T00:02:16;16.30;;;13.03;;
2173;SDS011;1093;51.424;11.764;2023-04-06T00:04:43;18.67;;;13.20;;
2173;SDS011;1093;51.424;11.764;2023-04-06T00:07:10;19.00;;;13.80;;
2173;SDS011;1093;51.424;11.764;2023-04-06T00:09:37;21.07;;;14.10;;
2173;SDS011;1093;51.424;11.764;2023-04-06T00:12:04;21.50;;;14.73;;
2173;SDS011;1093;51.424;11.764;2023-04-06T00:14:32;17.60;;;13.60;;
2173;SDS011;1093;51.424;11.764;2023-04-06T00:16:59;17.23;;;13.70;;
2173;SDS011;1093;51.424;11.764;2023-04-06T00:19:26;22.03;;;12.67;;
2173;SDS011;1093;51.424;11.764;2023-04-06T00:21:53;15.90;;;13.50;;
2173;SDS011;1093;51.424;11.764;2023-04-06T00:24:19;20.73;;;15.50;;
2173;SDS011;1093;51.424;11.764;2023-04-06T00:26:46;17.97;;;14.23;;
2173;SDS011;1093;51.424;11.764;2023-04-06T00:29:13;16.40;;;13.63;;
2173;SDS011;1093;51.424;11.764;2023-04-06T00:31:41;19.80;;;14.70;;
2173;SDS011;1093;51.424;11.764;2023-04-06T00:34:08;28.83;;;15.60;;
2173;SDS011;1093;51.424;11.764;2023-04-06T00:36:35;20.13;;;14.97;;
2173;SDS011;1093;51.424;11.764;2023-04-06T00:39:02;20.83;;;14.40;;
2173;SDS011;1093;51.424;11.764;2023-04-06T00:41:28;21.40;;;13.50;;
2173;SDS011;1093;51.424;11.764;2023-04-06T00:43:56;21.03;;;13.83;;
2173;SDS011;1093;51.424;11.764;2023-04-06T00:46:23;17.00;;;13.40;;
2173;SDS011;1093;51.424;11.764;2023-04-06T00:48:51;17.77;;;13.90;;
2173;SDS011;1093;51.424;11.764;2023-04-06T00:51:17;20.17;;;14.97;;
2173;SDS011;1093;51.424;11.764;2023-04-06T00:53:44;24.90;;;14.13;;
2173;SDS011;1093;51.424;11.764;2023-04-06T00:56:11;18.73;;;14.57;;
2173;SDS011;1093;51.424;11.764;2023-04-06T00:58:38;17.37;;;13.50;;
2173;SDS011;1093;51.424;11.764;2023-04-06T01:01:05;20.73;;;15.10;;
2173;SDS011;1093;51.424;11.764;2023-04-06T01:03:32;19.07;;;13.20;;
2173;SDS011;1093;51.424;11.764;2023-04-06T01:06:00;22.00;;;14.83;;
2173;SDS011;1093;51.424;11.764;2023-04-06T01:08:27;17.47;;;13.27;;
2173;SDS011;1093;51.424;11.764;2023-04-06T01:10:54;14.83;;;13.20;;
2173;SDS011;1093;51.424;11.764;2023-04-06T01:13:20;22.77;;;14.63;;
2173;SDS011;1093;51.424;11.764;2023-04-06T01:15:47;23.07;;;15.00;;
2173;SDS011;1093;51.424;11.764;2023-04-06T01:18:14;18.20;;;13.50;;
2173;SDS011;1093;51.424;11.764;2023-04-06T01:20:41;18.17;;;14.67;;
2173;SDS011;1093;51.424;11.764;2023-04-06T01:23:09;20.77;;;14.00;;
2173;SDS011;1093;51.424;11.764;2023-04-06T01:25:36;20.77;;;12.60;;
2173;SDS011;1093;51.424;11.764;2023-04-06T01:28:03;17.27;;;12.00;;
2173;SDS011;1093;51.424;11.764;2023-04-06T01:30:30;14.00;;;12.33;;
2173;SDS011;1093;51.424;11.764;2023-04-06T01:32:56;17.80;;;12.93;;
2173;SDS011;1093;51.424;11.764;2023-04-06T01:35:25;19.33;;;13.43;;
2173;SDS011;1093;51.424;11.764;2023-04-06T01:37:51;17.33;;;12.70;;
2173;SDS011;1093;51.424;11.764;2023-04-06T01:40:20;16.70;;;12.83;;
2173;SDS011;1093;51.424;11.764;2023-04-06T01:42:46;18.00;;;13.67;;
2173;SDS011;1093;51.424;11.764;2023-04-06T01:45:13;15.50;;;13.13;;
2173;SDS011;1093;51.424;11.764;2023-04-06T01:47:40;19.13;;;14.30;;
2173;SDS011;1093;51.424;11.764;2023-04-06T01:50:07;21.77;;;15.20;;
2173;SDS011;1093;51.424;11.764;2023-04-06T01:52:34;24.03;;;14.30;;
2173;SDS011;1093;51.424;11.764;2023-04-06T01:55:01;25.20;;;15.97;;
2173;SDS011;1093;51.424;11.764;2023-04-06T01:57:29;16.67;;;12.50;;
2173;SDS011;1093;51.424;11.764;2023-04-06T01:59:56;16.07;;;11.50;;
2173;SDS011;1093;51.424;11.764;2023-04-06T02:02:23;18.10;;;11.50;;
2173;SDS011;1093;51.424;11.764;2023-04-06T02:04:49;20.20;;;14.30;;
2173;SDS011;1093;51.424;11.764;2023-04-06T02:07:16;16.80;;;13.20;;
2173;SDS011;1093;51.424;11.764;2023-04-06T02:09:43;20.60;;;14.40;;
2173;SDS011;1093;51.424;11.764;2023-04-06T02:12:10;17.47;;;13.07;;
2173;SDS011;1093;51.424;11.764;2023-04-06T02:14:38;20.70;;;13.40;;
2173;SDS011;1093;51.424;11.764;2023-04-06T02:17:04;21.37;;;14.23;;
2173;SDS011;1093;51.424;11.764;2023-04-06T02:19:31;17.73;;;14.10;;
2173;SDS011;1093;51.424;11.764;2023-04-06T02:21:58;20.70;;;14.97;;
2173;SDS011;1093;51.424;11.764;2023-04-06T02:24:25;25.33;;;15.97;;
2173;SDS011;1093;51.424;11.764;2023-04-06T02:26:51;22.93;;;13.20;;
2173;SDS011;1093;51.424;11.764;2023-04-06T02:29:19;18.40;;;13.67;;
2173;SDS011;1093;51.424;11.764;2023-04-06T02:31:47;12.90;;;11.20;;
2173;SDS011;1093;51.424;11.764;2023-04-06T02:34:14;15.80;;;12.00;;
2173;SDS011;1093;51.424;11.764;2023-04-06T02:36:42;17.43;;;13.80;;
2173;SDS011;1093;51.424;11.764;2023-04-06T02:39:09;17.40;;;12.40;;
2173;SDS011;1093;51.424;11.764;2023-04-06T02:41:36;20.10;;;14.40;;
2173;SDS011;1093;51.424;11.764;2023-04-06T02:44:03;17.60;;;13.90;;
2173;SDS011;1093;51.424;11.764;2023-04-06T02:46:30;17.83;;;12.33;;
2173;SDS011;1093;51.424;11.764;2023-04-06T02:48:58;16.17;;;12.50;;
2173;SDS011;1093;51.424;11.764;2023-04-06T02:51:25;22.07;;;14.43;;
2173;SDS011;1093;51.424;11.764;2023-04-06T02:53:53;15.70;;;13.33;;
2173;SDS011;1093;51.424;11.764;2023-04-06T02:56:19;19.57;;;14.03;;
2173;SDS011;1093;51.424;11.764;2023-04-06T02:58:46;15.37;;;13.10;;
2173;SDS011;1093;51.424;11.764;2023-04-06T03:01:13;17.77;;;13.37;;
2173;SDS011;1093;51.424;11.764;2023-04-06T03:03:40;17.03;;;13.47;;
2173;SDS011;1093;51.424;11.764;2023-04-06T03:06:08;17.93;;;11.63;;
2173;SDS011;1093;51.424;11.764;2023-04-06T03:08:35;18.83;;;14.30;;
2173;SDS011;1093;51.424;11.764;2023-04-06T03:11:01;16.90;;;12.87;;
2173;SDS011;1093;51.424;11.764;2023-04-06T03:13:28;18.10;;;13.87;;
2173;SDS011;1093;51.424;11.764;2023-04-06T03:15:55;18.43;;;14.27;;
2173;SDS011;1093;51.424;11.764;2023-04-06T03:18:22;17.80;;;12.73;;
2173;SDS011;1093;51.424;11.764;2023-04-06T03:20:51;16.73;;;13.13;;
2173;SDS011;1093;51.424;11.764;2023-04-06T03:23:20;15.43;;;12.53;;
2173;SDS011;1093;51.424;11.764;2023-04-06T03:25:47;14.40;;;12.60;;
2173;SDS011;1093;51.424;11.764;2023-04-06T03:28:13;16.97;;;12.40;;
2173;SDS011;1093;51.424;11.764;2023-04-06T03:30:41;19.53;;;11.90;;
2173;SDS011;1093;51.424;11.764;2023-04-06T03:33:07;20.90;;;15.20;;
2173;SDS011;1093;51.424;11.764;2023-04-06T03:35:34;18.63;;;13.90;;
2173;SDS011;1093;51.424;11.764;2023-04-06T03:38:01;16.63;;;12.40;;
2173;SDS011;1093;51.424;11.764;2023-04-06T03:40:29;18.53;;;13.80;;
2173;SDS011;1093;51.424;11.764;2023-04-06T03:42:56;18.97;;;14.07;;
2173;SDS011;1093;51.424;11.764;2023-04-06T03:45:23;20.70;;;15.23;;
2173;SDS011;1093;51.424;11.764;2023-04-06T03:47:50;14.90;;;11.80;;
2173;SDS011;1093;51.424;11.764;2023-04-06T03:50:16;16.17;;;12.30;;
2173;SDS011;1093;51.424;11.764;2023-04-06T03:52:43;16.90;;;11.83;;
2173;SDS011;1093;51.424;11.764;2023-04-06T03:55:10;18.10;;;13.17;;
2173;SDS011;1093;51.424;11.764;2023-04-06T03:57:38;18.10;;;14.13;;
2173;SDS011;1093;51.424;11.764;2023-04-06T04:00:05;17.73;;;13.20;;
2173;SDS011;1093;51.424;11.764;2023-04-06T04:02:34;15.47;;;13.10;;
2173;SDS011;1093;51.424;11.764;2023-04-06T04:05:00;18.87;;;14.60;;
2173;SDS011;1093;51.424;11.764;2023-04-06T04:07:27;21.60;;;15.13;;
2173;SDS011;1093;51.424;11.764;2023-04-06T04:09:54;18.73;;;13.33;;
2173;SDS011;1093;51.424;11.764;2023-04-06T04:12:21;14.50;;;12.23;;
2173;SDS011;1093;51.424;11.764;2023-04-06T04:14:49;20.20;;;14.90;;
2173;SDS011;1093;51.424;11.764;2023-04-06T04:17:15;25.20;;;16.43;;
2173;SDS011;1093;51.424;11.764;2023-04-06T04:19:42;22.27;;;15.50;;
2173;SDS011;1093;51.424;11.764;2023-04-06T04:22:09;19.43;;;15.63;;
2173;SDS011;1093;51.424;11.764;2023-04-06T04:24:36;28.37;;;18.90;;
2173;SDS011;1093;51.424;11.764;2023-04-06T04:27:02;21.97;;;16.00;;
2173;SDS011;1093;51.424;11.764;2023-04-06T04:29:29;22.43;;;16.40;;
2173;SDS011;1093;51.424;11.764;2023-04-06T04:31:57;22.77;;;15.60;;
2173;SDS011;1093;51.424;11.764;2023-04-06T04:34:24;27.03;;;17.90;;
2173;SDS011;1093;51.424;11.764;2023-04-06T04:36:51;22.33;;;17.00;;
2173;SDS011;1093;51.424;11.764;2023-04-06T04:39:18;26.40;;;17.40;;
2173;SDS011;1093;51.424;11.764;2023-04-06T04:41:44;28.97;;;17.07;;
2173;SDS011;1093;51.424;11.764;2023-04-06T04:44:11;24.50;;;16.90;;
2173;SDS011;1093;51.424;11.764;2023-04-06T04:46:38;28.87;;;17.63;;
2173;SDS011;1093;51.424;11.764;2023-04-06T04:49:07;27.77;;;17.53;;
2173;SDS011;1093;51.424;11.764;2023-04-06T04:51:34;25.33;;;17.63;;
2173;SDS011;1093;51.424;11.764;2023-04-06T04:54:01;23.03;;;16.37;;
2173;SDS011;1093;51.424;11.764;2023-04-06T04:56:28;18.20;;;15.33;;
2173;SDS011;1093;51.424;11.764;2023-04-06T04:58:54;24.30;;;16.47;;
2173;SDS011;1093;51.424;11.764;2023-04-06T05:01:21;23.87;;;16.03;;
2173;SDS011;1093;51.424;11.764;2023-04-06T05:03:48;24.70;;;17.73;;
2173;SDS011;1093;51.424;11.764;2023-04-06T05:06:16;20.03;;;15.70;;
2173;SDS011;1093;51.424;11.764;2023-04-06T05:08:44;23.07;;;16.50;;
2173;SDS011;1093;51.424;11.764;2023-04-06T05:11:10;23.20;;;15.20;;
2173;SDS011;1093;51.424;11.764;2023-04-06T05:13:37;22.87;;;18.17;;
2173;SDS011;1093;51.424;11.764;2023-04-06T05:16:04;26.50;;;18.43;;
2173;SDS011;1093;51.424;11.764;2023-04-06T05:18:31;22.90;;;16.20;;
2173;SDS011;1093;51.424;11.764;2023-04-06T05:20:58;24.73;;;18.23;;
2173;SDS011;1093;51.424;11.764;2023-04-06T05:23:27;25.70;;;18.27;;
2173;SDS011;1093;51.424;11.764;2023-04-06T05:25:53;27.50;;;18.83;;
2173;SDS011;1093;51.424;11.764;2023-04-06T05:28:20;28.17;;;19.33;;
2173;SDS011;1093;51.424;11.764;2023-04-06T05:30:47;29.80;;;18.63;;
2173;SDS011;1093;51.424;11.764;2023-04-06T05:33:13;24.50;;;17.60;;
2173;SDS011;1093;51.424;11.764;2023-04-06T05:35:40;26.50;;;18.87;;
2173;SDS011;1093;51.424;11.764;2023-04-06T05:38:07;23.73;;;18.20;;
2173;SDS011;1093;51.424;11.764;2023-04-06T05:40:36;22.73;;;16.40;;
2173;SDS011;1093;51.424;11.764;2023-04-06T05:43:05;27.27;;;18.13;;
2173;SDS011;1093;51.424;11.764;2023-04-06T05:45:32;28.07;;;18.30;;
2173;SDS011;1093;51.424;11.764;2023-04-06T05:48:00;30.17;;;19.43;;
2173;SDS011;1093;51.424;11.764;2023-04-06T05:50:26;31.17;;;19.00;;
2173;SDS011;1093;51.424;11.764;2023-04-06T05:52:53;28.10;;;18.93;;
2173;SDS011;1093;51.424;11.764;2023-04-06T05:55:20;27.57;;;18.50;;
2173;SDS011;1093;51.424;11.764;2023-04-06T05:57:48;32.93;;;19.20;;
2173;SDS011;1093;51.424;11.764;2023-04-06T06:00:15;34.60;;;20.53;;
2173;SDS011;1093;51.424;11.764;2023-04-06T06:02:42;35.00;;;20.13;;
2173;SDS011;1093;51.424;11.764;2023-04-06T06:05:09;52.37;;;22.13;;
2173;SDS011;1093;51.424;11.764;2023-04-06T06:07:36;34.03;;;21.17;;
2173;SDS011;1093;51.424;11.764;2023-04-06T06:10:03;31.30;;;22.23;;
2173;SDS011;1093;51.424;11.764;2023-04-06T06:12:30;34.83;;;21.87;;
2173;SDS011;1093;51.424;11.764;2023-04-06T06:14:58;31.30;;;21.80;;
2173;SDS011;1093;51.424;11.764;2023-04-06T06:17:25;41.10;;;24.97;;
2173;SDS011;1093;51.424;11.764;2023-04-06T06:19:52;38.83;;;23.20;;
2173;SDS011;1093;51.424;11.764;2023-04-06T06:22:19;42.23;;;24.37;;
2173;SDS011;1093;51.424;11.764;2023-04-06T06:24:45;38.00;;;24.43;;
2173;SDS011;1093;51.424;11.764;2023-04-06T06:27:12;45.00;;;26.40;;
2173;SDS011;1093;51.424;11.764;2023-04-06T06:29:39;41.43;;;27.20;;
2173;SDS011;1093;51.424;11.764;2023-04-06T06:32:07;54.93;;;29.50;;
2173;SDS011;1093;51.424;11.764;2023-04-06T06:34:34;41.73;;;26.53;;
2173;SDS011;1093;51.424;11.764;2023-04-06T06:37:01;44.20;;;27.53;;
2173;SDS011;1093;51.424;11.764;2023-04-06T06:39:28;45.70;;;28.97;;
2173;SDS011;1093;51.424;11.764;2023-04-06T06:41:55;48.63;;;31.40;;
2173;SDS011;1093;51.424;11.764;2023-04-06T06:44:22;47.07;;;29.70;;
2173;SDS011;1093;51.424;11.764;2023-04-06T06:46:48;46.07;;;30.77;;
2173;SDS011;1093;51.424;11.764;2023-04-06T06:49:16;54.90;;;32.03;;
2173;SDS011;1093;51.424;11.764;2023-04-06T06:51:43;54.03;;;33.30;;
2173;SDS011;1093;51.424;11.764;2023-04-06T06:54:10;43.20;;;30.03;;
2173;SDS011;1093;51.424;11.764;2023-04-06T06:56:37;46.10;;;29.87;;
2173;SDS011;1093;51.424;11.764;2023-04-06T06:59:04;40.43;;;25.77;;
2173;SDS011;1093;51.424;11.764;2023-04-06T07:01:31;39.03;;;25.40;;
2173;SDS011;1093;51.424;11.764;2023-04-06T07:03:58;33.80;;;24.20;;
2173;SDS011;1093;51.424;11.764;2023-04-06T07:06:26;33.80;;;23.30;;
2173;SDS011;1093;51.424;11.764;2023-04-06T07:08:53;41.47;;;25.00;;
2173;SDS011;1093;51.424;11.764;2023-04-06T07:11:20;34.57;;;23.37;;
2173;SDS011;1093;51.424;11.764;2023-04-06T07:13:47;28.73;;;20.00;;
2173;SDS011;1093;51.424;11.764;2023-04-06T07:16:13;22.80;;;17.57;;
2173;SDS011;1093;51.424;11.764;2023-04-06T07:18:40;25.07;;;17.37;;
2173;SDS011;1093;51.424;11.764;2023-04-06T07:21:07;23.73;;;16.30;;
2173;SDS011;1093;51.424;11.764;2023-04-06T07:23:35;19.93;;;15.83;;
2173;SDS011;1093;51.424;11.764;2023-04-06T07:26:01;18.97;;;14.07;;
2173;SDS011;1093;51.424;11.764;2023-04-06T07:28:28;22.00;;;14.23;;
2173;SDS011;1093;51.424;11.764;2023-04-06T07:30:55;18.50;;;14.30;;
2173;SDS011;1093;51.424;11.764;2023-04-06T07:33:22;21.37;;;14.47;;
2173;SDS011;1093;51.424;11.764;2023-04-06T07:35:49;22.53;;;14.60;;
2173;SDS011;1093;51.424;11.764;2023-04-06T07:38:16;16.67;;;13.97;;
2173;SDS011;1093;51.424;11.764;2023-04-06T07:40:45;19.90;;;14.27;;
2173;SDS011;1093;51.424;11.764;2023-04-06T07:43:12;21.10;;;15.10;;
2173;SDS011;1093;51.424;11.764;2023-04-06T07:45:39;14.17;;;12.53;;
2173;SDS011;1093;51.424;11.764;2023-04-06T07:48:06;17.77;;;13.80;;
2173;SDS011;1093;51.424;11.764;2023-04-06T07:50:32;15.67;;;11.93;;
2173;SDS011;1093;51.424;11.764;2023-04-06T07:52:59;15.70;;;13.63;;
2173;SDS011;1093;51.424;11.764;2023-04-06T07:55:26;17.00;;;12.53;;
2173;SDS011;1093;51.424;11.764;2023-04-06T07:57:54;14.53;;;13.03;;
2173;SDS011;1093;51.424;11.764;2023-04-06T08:00:21;15.37;;;11.80;;
2173;SDS011;1093;51.424;11.764;2023-04-06T08:02:47;13.73;;;12.27;;
2173;SDS011;1093;51.424;11.764;2023-04-06T08:05:14;14.63;;;12.17;;
2173;SDS011;1093;51.424;11.764;2023-04-06T08:07:41;11.80;;;10.23;;
2173;SDS011;1093;51.424;11.764;2023-04-06T08:10:08;14.53;;;10.87;;
2173;SDS011;1093;51.424;11.764;2023-04-06T08:12:35;18.47;;;11.77;;
2173;SDS011;1093;51.424;11.764;2023-04-06T08:15:04;14.67;;;11.00;;
2173;SDS011;1093;51.424;11.764;2023-04-06T08:17:31;11.23;;;9.87;;
2173;SDS011;1093;51.424;11.764;2023-04-06T08:19:59;13.43;;;10.00;;
2173;SDS011;1093;51.424;11.764;2023-04-06T08:22:25;13.30;;;9.80;;
2173;SDS011;1093;51.424;11.764;2023-04-06T08:24:52;15.80;;;9.97;;
2173;SDS011;1093;51.424;11.764;2023-04-06T08:27:19;13.53;;;9.93;;
2173;SDS011;1093;51.424;11.764;2023-04-06T08:29:47;11.97;;;9.87;;
2173;SDS011;1093;51.424;11.764;2023-04-06T08:32:16;11.83;;;9.27;;
2173;SDS011;1093;51.424;11.764;2023-04-06T08:34:43;15.30;;;9.77;;
